Time,TemperatureF,DewpointF,PressureIn,WindDirection,WindDirectionDegrees,WindSpeedMPH,WindSpeedGustMPH,Humidity,HourlyPrecipIn,Conditions,Clouds,dailyrainin,SolarRadiationWatts/m^2,SoftwareType,DateUTC
2013-02-23 00:03:00,49.0,44.0,-100.00,WNW,297,3.0,11.0,83,0.00,,,0.27,0.000000,,2013-02-23 05:03:00,
2013-02-23 00:33:00,47.0,43.0,-100.00,NE,46,1.0,5.0,86,0.00,,,0.27,0.000000,,2013-02-23 05:33:00,
2013-02-23 00:42:00,47.0,43.0,-100.00,NE,46,1.0,5.0,86,0.00,,,0.27,0.000000,,2013-02-23 05:42:00,
2013-02-23 00:52:00,47.0,43.0,-100.00,NE,46,1.0,5.0,86,0.00,,,0.27,0.000000,,2013-02-23 05:52:00,
2013-02-23 01:02:00,47.0,43.0,-100.00,NE,46,1.0,5.0,86,0.00,,,0.27,0.000000,,2013-02-23 06:02:00,
2013-02-23 01:32:00,46.0,42.0,-100.00,NNE,28,2.0,4.0,87,0.00,,,0.26,0.000000,,2013-02-23 06:32:00,
2013-02-23 01:42:00,46.0,42.0,-100.00,NNE,28,2.0,4.0,87,0.00,,,0.26,0.000000,,2013-02-23 06:42:00,
2013-02-23 01:52:00,46.0,42.0,-100.00,NNE,28,2.0,4.0,87,0.00,,,0.26,0.000000,,2013-02-23 06:52:00,
2013-02-23 02:01:00,46.0,42.0,-100.00,NNE,28,2.0,4.0,87,0.00,,,0.26,0.000000,,2013-02-23 07:01:00,
2013-02-23 02:32:00,45.0,42.0,-100.00,NW,319,5.0,6.0,88,0.00,,,0.26,0.000000,,2013-02-23 07:32:00,
2013-02-23 02:42:00,45.0,42.0,-100.00,NW,319,5.0,6.0,88,0.00,,,0.26,0.000000,,2013-02-23 07:42:00,
2013-02-23 02:52:00,45.0,42.0,-100.00,NW,319,5.0,6.0,88,0.00,,,0.26,0.000000,,2013-02-23 07:52:00,
2013-02-23 03:01:00,45.0,42.0,-100.00,NW,319,5.0,6.0,88,0.00,,,0.26,0.000000,,2013-02-23 08:01:00,
2013-02-23 03:32:00,44.0,40.0,-100.00,WNW,282,4.0,7.0,87,0.00,,,0.26,0.000000,,2013-02-23 08:32:00,
2013-02-23 03:42:00,44.0,40.0,-100.00,WNW,282,4.0,7.0,87,0.00,,,0.26,0.000000,,2013-02-23 08:42:00,
2013-02-23 03:53:00,44.0,40.0,-100.00,WNW,282,4.0,7.0,87,0.00,,,0.26,0.000000,,2013-02-23 08:53:00,
2013-02-23 04:02:00,44.0,40.0,-100.00,WNW,282,4.0,7.0,87,0.00,,,0.26,0.000000,,2013-02-23 09:02:00,
2013-02-23 04:32:00,43.0,40.0,-100.00,West,274,4.0,6.0,89,0.00,,,0.26,0.000000,,2013-02-23 09:32:00,
2013-02-23 04:42:00,43.0,40.0,-100.00,West,274,4.0,6.0,89,0.00,,,0.26,0.000000,,2013-02-23 09:42:00,
2013-02-23 04:52:00,43.0,40.0,-100.00,West,274,4.0,6.0,89,0.00,,,0.26,0.000000,,2013-02-23 09:52:00,
2013-02-23 05:01:00,43.0,40.0,-100.00,West,274,4.0,6.0,89,0.00,,,0.26,0.000000,,2013-02-23 10:01:00,
2013-02-23 05:32:00,43.0,39.0,-100.00,West,279,5.0,8.0,86,0.00,,,0.26,0.000000,,2013-02-23 10:32:00,
2013-02-23 05:42:00,43.0,39.0,-100.00,West,279,5.0,8.0,86,0.00,,,0.26,0.000000,,2013-02-23 10:42:00,
2013-02-23 05:52:00,43.0,39.0,-100.00,West,279,5.0,8.0,86,0.00,,,0.26,0.000000,,2013-02-23 10:52:00,
2013-02-23 06:02:00,43.0,39.0,-100.00,West,279,5.0,8.0,86,0.00,,,0.26,0.000000,,2013-02-23 11:02:00,
2013-02-23 06:32:00,42.0,38.0,-100.00,West,280,4.0,9.0,84,0.00,,,0.26,0.000000,,2013-02-23 11:32:00,
2013-02-23 06:42:00,42.0,38.0,-100.00,West,280,4.0,9.0,84,0.00,,,0.26,0.000000,,2013-02-23 11:42:00,
2013-02-23 06:53:00,42.0,38.0,-100.00,West,280,4.0,9.0,84,0.00,,,0.26,0.000000,,2013-02-23 11:53:00,
2013-02-23 07:02:00,42.0,38.0,-100.00,West,280,4.0,9.0,84,0.00,,,0.26,0.000000,,2013-02-23 12:02:00,
2013-02-23 07:32:00,41.0,36.0,-100.00,WNW,288,6.0,9.0,82,0.00,,,0.26,0.000000,,2013-02-23 12:32:00,
2013-02-23 07:42:00,41.0,36.0,-100.00,WNW,288,6.0,9.0,82,0.00,,,0.26,0.000000,,2013-02-23 12:42:00,
2013-02-23 07:53:00,41.0,36.0,-100.00,WNW,288,6.0,9.0,82,0.00,,,0.26,0.000000,,2013-02-23 12:53:00,
2013-02-23 08:02:00,41.0,36.0,-100.00,WNW,288,6.0,9.0,82,0.00,,,0.26,0.000000,,2013-02-23 13:02:00,
2013-02-23 08:32:00,40.0,36.0,-100.00,WNW,283,7.0,14.0,84,0.00,,,0.26,10.000000,,2013-02-23 13:32:00,
2013-02-23 08:42:00,40.0,36.0,-100.00,WNW,283,7.0,14.0,84,0.00,,,0.26,10.000000,,2013-02-23 13:42:00,
2013-02-23 08:52:00,40.0,36.0,-100.00,WNW,283,7.0,14.0,84,0.00,,,0.26,10.000000,,2013-02-23 13:52:00,
2013-02-23 09:02:00,40.0,36.0,-100.00,WNW,283,7.0,14.0,84,0.00,,,0.26,10.000000,,2013-02-23 14:02:00,
2013-02-23 09:33:00,39.0,35.0,-100.00,WNW,294,7.0,11.0,84,0.00,,,0.07,51.000000,,2013-02-23 14:33:00,
2013-02-23 09:42:00,39.0,35.0,-100.00,WNW,294,7.0,11.0,84,0.00,,,0.07,51.000000,,2013-02-23 14:42:00,
2013-02-23 09:52:00,39.0,35.0,-100.00,WNW,294,7.0,11.0,84,0.00,,,0.07,51.000000,,2013-02-23 14:52:00,
2013-02-23 10:02:00,39.0,35.0,-100.00,WNW,294,7.0,11.0,84,0.00,,,0.07,51.000000,,2013-02-23 15:02:00,
2013-02-23 10:32:00,38.0,34.0,-100.00,NW,308,7.0,12.0,86,0.00,,,0.00,81.000000,,2013-02-23 15:32:00,
2013-02-23 10:42:00,38.0,34.0,-100.00,NW,308,7.0,12.0,86,0.00,,,0.00,81.000000,,2013-02-23 15:42:00,
2013-02-23 10:52:00,38.0,34.0,-100.00,NW,308,7.0,12.0,86,0.00,,,0.00,81.000000,,2013-02-23 15:52:00,
2013-02-23 11:01:00,38.0,34.0,-100.00,NW,308,7.0,12.0,86,0.00,,,0.00,81.000000,,2013-02-23 16:01:00,
2013-02-23 11:32:00,38.0,34.0,-100.00,NW,322,5.0,12.0,86,0.00,,,0.00,120.000000,,2013-02-23 16:32:00,
2013-02-23 11:42:00,38.0,34.0,-100.00,NW,322,5.0,12.0,86,0.00,,,0.00,120.000000,,2013-02-23 16:42:00,
2013-02-23 11:52:00,38.0,34.0,-100.00,NW,322,5.0,12.0,86,0.00,,,0.00,120.000000,,2013-02-23 16:52:00,
2013-02-23 12:01:00,38.0,34.0,-100.00,NW,322,5.0,12.0,86,0.00,,,0.00,120.000000,,2013-02-23 17:01:00,
2013-02-23 12:32:00,41.0,35.0,-100.00,WNW,289,3.0,7.0,80,0.00,,,0.00,206.000000,,2013-02-23 17:32:00,
2013-02-23 12:42:00,41.0,35.0,-100.00,WNW,289,3.0,7.0,80,0.00,,,0.00,206.000000,,2013-02-23 17:42:00,
2013-02-23 12:52:00,41.0,35.0,-100.00,WNW,289,3.0,7.0,80,0.00,,,0.00,206.000000,,2013-02-23 17:52:00,
2013-02-23 13:02:00,41.0,35.0,-100.00,WNW,289,3.0,7.0,80,0.00,,,0.00,206.000000,,2013-02-23 18:02:00,
2013-02-23 13:32:00,43.0,34.0,-100.00,West,281,6.0,10.0,71,0.00,,,0.00,455.000000,,2013-02-23 18:32:00,
2013-02-23 13:42:00,43.0,34.0,-100.00,West,281,6.0,10.0,71,0.00,,,0.00,455.000000,,2013-02-23 18:42:00,
2013-02-23 13:52:00,43.0,34.0,-100.00,West,281,6.0,10.0,71,0.00,,,0.00,455.000000,,2013-02-23 18:52:00,
2013-02-23 14:01:00,43.0,34.0,-100.00,West,281,6.0,10.0,71,0.00,,,0.00,455.000000,,2013-02-23 19:01:00,
2013-02-23 14:32:00,47.0,34.0,-100.00,WSW,256,5.0,10.0,61,0.00,,,0.00,506.000000,,2013-02-23 19:32:00,
2013-02-23 14:42:00,47.0,34.0,-100.00,WSW,256,5.0,10.0,61,0.00,,,0.00,506.000000,,2013-02-23 19:42:00,
2013-02-23 14:52:00,47.0,34.0,-100.00,WSW,256,5.0,10.0,61,0.00,,,0.00,506.000000,,2013-02-23 19:52:00,
2013-02-23 15:01:00,47.0,34.0,-100.00,WSW,256,5.0,10.0,61,0.00,,,0.00,506.000000,,2013-02-23 20:01:00,
2013-02-23 15:32:00,48.0,33.0,-100.00,SW,236,5.0,9.0,55,0.00,,,0.00,600.000000,,2013-02-23 20:32:00,
2013-02-23 15:42:00,48.0,33.0,-100.00,SW,236,5.0,9.0,55,0.00,,,0.00,600.000000,,2013-02-23 20:42:00,
2013-02-23 15:53:00,48.0,33.0,-100.00,SW,236,5.0,9.0,55,0.00,,,0.00,600.000000,,2013-02-23 20:53:00,
2013-02-23 16:02:00,48.0,33.0,-100.00,SW,236,5.0,9.0,55,0.00,,,0.00,600.000000,,2013-02-23 21:02:00,
2013-02-23 16:32:00,49.0,32.0,-100.00,SW,225,4.0,8.0,51,0.00,,,0.00,358.000000,,2013-02-23 21:32:00,
2013-02-23 16:42:00,49.0,32.0,-100.00,SW,225,4.0,8.0,51,0.00,,,0.00,358.000000,,2013-02-23 21:42:00,
2013-02-23 16:52:00,49.0,32.0,-100.00,SW,225,4.0,8.0,51,0.00,,,0.00,358.000000,,2013-02-23 21:52:00,
2013-02-23 17:02:00,49.0,32.0,-100.00,SW,225,4.0,8.0,51,0.00,,,0.00,358.000000,,2013-02-23 22:02:00,
2013-02-23 17:32:00,46.0,31.0,-100.00,SW,234,5.0,8.0,55,0.00,,,0.00,229.000000,,2013-02-23 22:32:00,
2013-02-23 17:42:00,46.0,31.0,-100.00,SW,234,5.0,8.0,55,0.00,,,0.00,229.000000,,2013-02-23 22:42:00,
2013-02-23 17:52:00,46.0,31.0,-100.00,SW,234,5.0,8.0,55,0.00,,,0.00,229.000000,,2013-02-23 22:52:00,
2013-02-23 18:01:00,46.0,31.0,-100.00,SW,234,5.0,8.0,55,0.00,,,0.00,229.000000,,2013-02-23 23:01:00,
2013-02-23 18:32:00,45.0,32.0,-100.00,WSW,240,3.0,7.0,59,0.00,,,0.00,66.000000,,2013-02-23 23:32:00,
2013-02-23 18:42:00,45.0,32.0,-100.00,WSW,240,3.0,7.0,59,0.00,,,0.00,66.000000,,2013-02-23 23:42:00,
2013-02-23 18:52:00,45.0,32.0,-100.00,WSW,240,3.0,7.0,59,0.00,,,0.00,66.000000,,2013-02-23 23:52:00,
2013-02-23 19:02:00,45.0,32.0,-100.00,WSW,240,3.0,7.0,59,0.00,,,0.00,66.000000,,2013-02-24 00:02:00,
2013-02-23 19:32:00,42.0,29.0,-100.00,NW,317,7.0,11.0,59,0.00,,,0.00,4.000000,,2013-02-24 00:32:00,
2013-02-23 19:42:00,42.0,29.0,-100.00,NW,317,7.0,11.0,59,0.00,,,0.00,4.000000,,2013-02-24 00:42:00,
2013-02-23 19:52:00,42.0,29.0,-100.00,NW,317,7.0,11.0,59,0.00,,,0.00,4.000000,,2013-02-24 00:52:00,
2013-02-23 20:01:00,42.0,29.0,-100.00,NW,317,7.0,11.0,59,0.00,,,0.00,4.000000,,2013-02-24 01:01:00,
2013-02-23 20:32:00,40.0,27.0,-100.00,NW,312,6.0,10.0,60,0.00,,,0.00,0.000000,,2013-02-24 01:32:00,
2013-02-23 20:42:00,40.0,27.0,-100.00,NW,312,6.0,10.0,60,0.00,,,0.00,0.000000,,2013-02-24 01:42:00,
2013-02-23 20:52:00,40.0,27.0,-100.00,NW,312,6.0,10.0,60,0.00,,,0.00,0.000000,,2013-02-24 01:52:00,
2013-02-23 21:01:00,40.0,27.0,-100.00,NW,312,6.0,10.0,60,0.00,,,0.00,0.000000,,2013-02-24 02:01:00,
2013-02-23 21:32:00,39.0,26.0,-100.00,WNW,291,6.0,10.0,60,0.00,,,0.00,0.000000,,2013-02-24 02:32:00,
2013-02-23 21:42:00,39.0,26.0,-100.00,WNW,291,6.0,10.0,60,0.00,,,0.00,0.000000,,2013-02-24 02:42:00,
2013-02-23 21:52:00,39.0,26.0,-100.00,WNW,291,6.0,10.0,60,0.00,,,0.00,0.000000,,2013-02-24 02:52:00,
2013-02-23 22:02:00,39.0,26.0,-100.00,WNW,291,6.0,10.0,60,0.00,,,0.00,0.000000,,2013-02-24 03:02:00,
2013-02-23 22:32:00,38.0,27.0,-100.00,West,272,5.0,8.0,63,0.00,,,0.00,0.000000,,2013-02-24 03:32:00,
2013-02-23 22:42:00,38.0,27.0,-100.00,West,272,5.0,8.0,63,0.00,,,0.00,0.000000,,2013-02-24 03:42:00,
2013-02-23 22:52:00,38.0,27.0,-100.00,West,272,5.0,8.0,63,0.00,,,0.00,0.000000,,2013-02-24 03:52:00,
2013-02-23 23:02:00,38.0,27.0,-100.00,West,272,5.0,8.0,63,0.00,,,0.00,0.000000,,2013-02-24 04:02:00,
2013-02-23 23:32:00,38.0,27.0,-100.00,West,276,5.0,8.0,63,0.00,,,0.00,0.000000,,2013-02-24 04:32:00,
2013-02-23 23:42:00,38.0,27.0,-100.00,West,276,5.0,8.0,63,0.00,,,0.00,0.000000,,2013-02-24 04:42:00,
2013-02-23 23:52:00,38.0,27.0,-100.00,West,276,5.0,8.0,63,0.00,,,0.00,0.000000,,2013-02-24 04:52:00,